sensor_id;sensor_type;location;lat;lon;timestamp;pressure;altitude;pressure_sealevel;temperature;humidity
4449;BME280;2237;51.870;6.160;2023-04-29T00:02:14;101271.53;;;12.39;100.00
4449;BME280;2237;51.870;6.160;2023-04-29T00:04:40;101274.22;;;12.36;100.00
4449;BME280;2237;51.870;6.160;2023-04-29T00:07:07;101282.19;;;12.30;100.00
4449;BME280;2237;51.870;6.160;2023-04-29T00:09:34;101284.00;;;12.26;100.00
4449;BME280;2237;51.870;6.160;2023-04-29T00:12:01;101276.78;;;12.37;100.00
4449;BME280;2237;51.870;6.160;2023-04-29T00:14:27;101279.13;;;12.48;100.00
4449;BME280;2237;51.870;6.160;2023-04-29T00:16:54;101288.81;;;12.44;100.00
4449;BME280;2237;51.870;6.160;2023-04-29T00:19:20;101280.50;;;12.27;100.00
4449;BME280;2237;51.870;6.160;2023-04-29T00:21:46;101292.59;;;12.31;100.00
4449;BME280;2237;51.870;6.160;2023-04-29T00:24:13;101293.34;;;12.36;100.00
4449;BME280;2237;51.870;6.160;2023-04-29T00:26:39;101294.63;;;12.19;100.00
4449;BME280;2237;51.870;6.160;2023-04-29T00:29:06;101302.34;;;12.22;100.00
4449;BME280;2237;51.870;6.160;2023-04-29T00:31:32;101301.41;;;12.27;100.00
4449;BME280;2237;51.870;6.160;2023-04-29T00:33:59;101313.66;;;12.24;100.00
4449;BME280;2237;51.870;6.160;2023-04-29T00:36:25;101308.44;;;12.22;100.00
4449;BME280;2237;51.870;6.160;2023-04-29T00:38:51;101305.28;;;12.08;100.00
4449;BME280;2237;51.870;6.160;2023-04-29T00:41:18;101316.41;;;12.16;100.00
4449;BME280;2237;51.870;6.160;2023-04-29T00:43:44;101316.44;;;12.15;100.00
4449;BME280;2237;51.870;6.160;2023-04-29T00:46:11;101313.16;;;12.07;100.00
4449;BME280;2237;51.870;6.160;2023-04-29T00:48:37;101321.28;;;11.90;100.00
4449;BME280;2237;51.870;6.160;2023-04-29T00:51:04;101323.41;;;11.71;100.00
4449;BME280;2237;51.870;6.160;2023-04-29T00:53:31;101325.81;;;11.83;100.00
4449;BME280;2237;51.870;6.160;2023-04-29T00:55:58;101332.25;;;11.61;100.00
4449;BME280;2237;51.870;6.160;2023-04-29T00:58:27;101328.66;;;11.68;100.00
4449;BME280;2237;51.870;6.160;2023-04-29T01:00:59;101335.44;;;11.80;100.00
4449;BME280;2237;51.870;6.160;2023-04-29T01:03:27;101336.47;;;11.71;100.00
4449;BME280;2237;51.870;6.160;2023-04-29T01:06:16;101351.84;;;11.36;100.00
4449;BME280;2237;51.870;6.160;2023-04-29T01:11:22;101346.91;;;11.71;100.00
4449;BME280;2237;51.870;6.160;2023-04-29T01:13:58;101339.78;;;11.79;100.00
4449;BME280;2237;51.870;6.160;2023-04-29T01:16:50;101341.25;;;11.94;100.00
4449;BME280;2237;51.870;6.160;2023-04-29T01:22:01;101347.09;;;12.07;100.00
4449;BME280;2237;51.870;6.160;2023-04-29T01:24:27;101349.78;;;12.02;100.00
4449;BME280;2237;51.870;6.160;2023-04-29T01:26:57;101359.56;;;11.93;100.00
4449;BME280;2237;51.870;6.160;2023-04-29T01:29:36;101357.72;;;11.96;100.00
4449;BME280;2237;51.870;6.160;2023-04-29T01:32:08;101361.31;;;11.90;100.00
4449;BME280;2237;51.870;6.160;2023-04-29T01:34:49;101361.19;;;11.97;100.00
4449;BME280;2237;51.870;6.160;2023-04-29T01:37:38;101364.19;;;11.75;100.00
4449;BME280;2237;51.870;6.160;2023-04-29T01:40:15;101374.47;;;11.84;100.00
4449;BME280;2237;51.870;6.160;2023-04-29T01:42:47;101368.34;;;11.87;100.00
4449;BME280;2237;51.870;6.160;2023-04-29T01:45:17;101368.53;;;11.78;100.00
4449;BME280;2237;51.870;6.160;2023-04-29T01:47:45;101375.41;;;11.82;100.00
4449;BME280;2237;51.870;6.160;2023-04-29T01:50:12;101368.41;;;11.84;100.00
4449;BME280;2237;51.870;6.160;2023-04-29T01:52:38;101373.50;;;11.90;100.00
4449;BME280;2237;51.870;6.160;2023-04-29T01:55:05;101376.91;;;11.95;100.00
4449;BME280;2237;51.870;6.160;2023-04-29T01:57:31;101374.47;;;11.86;100.00
4449;BME280;2237;51.870;6.160;2023-04-29T01:59:58;101377.75;;;11.96;100.00
4449;BME280;2237;51.870;6.160;2023-04-29T02:02:24;101376.00;;;11.96;100.00
4449;BME280;2237;51.870;6.160;2023-04-29T02:04:51;101369.84;;;11.99;100.00
4449;BME280;2237;51.870;6.160;2023-04-29T02:07:17;101378.59;;;11.98;100.00
4449;BME280;2237;51.870;6.160;2023-04-29T02:09:44;101377.59;;;12.03;100.00
4449;BME280;2237;51.870;6.160;2023-04-29T02:12:10;101381.31;;;11.92;100.00
4449;BME280;2237;51.870;6.160;2023-04-29T02:14:36;101379.59;;;11.90;100.00
4449;BME280;2237;51.870;6.160;2023-04-29T02:17:03;101385.59;;;11.96;100.00
4449;BME280;2237;51.870;6.160;2023-04-29T02:19:29;101387.22;;;12.01;100.00
4449;BME280;2237;51.870;6.160;2023-04-29T02:21:56;101390.59;;;12.06;100.00
4449;BME280;2237;51.870;6.160;2023-04-29T02:24:22;101391.53;;;12.02;100.00
4449;BME280;2237;51.870;6.160;2023-04-29T02:26:48;101395.00;;;12.03;100.00
4449;BME280;2237;51.870;6.160;2023-04-29T02:29:15;101391.72;;;11.93;100.00
4449;BME280;2237;51.870;6.160;2023-04-29T02:31:41;101400.50;;;11.87;100.00
4449;BME280;2237;51.870;6.160;2023-04-29T02:34:07;101400.41;;;11.95;100.00
4449;BME280;2237;51.870;6.160;2023-04-29T02:36:34;101405.44;;;12.04;100.00
4449;BME280;2237;51.870;6.160;2023-04-29T02:39:00;101400.19;;;12.06;100.00
4449;BME280;2237;51.870;6.160;2023-04-29T02:41:27;101403.78;;;11.99;100.00
4449;BME280;2237;51.870;6.160;2023-04-29T02:43:53;101409.16;;;11.93;100.00
4449;BME280;2237;51.870;6.160;2023-04-29T02:46:20;101413.56;;;11.87;100.00
4449;BME280;2237;51.870;6.160;2023-04-29T02:48:46;101422.31;;;11.85;100.00
4449;BME280;2237;51.870;6.160;2023-04-29T02:51:13;101423.13;;;11.88;100.00
4449;BME280;2237;51.870;6.160;2023-04-29T02:53:39;101431.09;;;11.81;100.00
4449;BME280;2237;51.870;6.160;2023-04-29T02:56:05;101438.91;;;11.82;100.00
4449;BME280;2237;51.870;6.160;2023-04-29T02:58:32;101440.84;;;11.71;100.00
4449;BME280;2237;51.870;6.160;2023-04-29T03:00:59;101436.34;;;11.79;100.00
4449;BME280;2237;51.870;6.160;2023-04-29T03:03:25;101432.13;;;11.72;100.00
4449;BME280;2237;51.870;6.160;2023-04-29T03:05:52;101430.41;;;11.70;100.00
4449;BME280;2237;51.870;6.160;2023-04-29T03:08:18;101435.56;;;11.74;100.00
4449;BME280;2237;51.870;6.160;2023-04-29T03:10:44;101435.72;;;11.62;100.00
4449;BME280;2237;51.870;6.160;2023-04-29T03:13:11;101437.47;;;11.63;100.00
4449;BME280;2237;51.870;6.160;2023-04-29T03:15:38;101431.44;;;11.60;100.00
4449;BME280;2237;51.870;6.160;2023-04-29T03:18:04;101434.03;;;11.60;100.00
4449;BME280;2237;51.870;6.160;2023-04-29T03:20:31;101443.44;;;11.70;100.00
4449;BME280;2237;51.870;6.160;2023-04-29T03:22:57;101438.06;;;11.79;100.00
4449;BME280;2237;51.870;6.160;2023-04-29T03:25:25;101446.00;;;11.74;100.00
4449;BME280;2237;51.870;6.160;2023-04-29T03:27:51;101450.44;;;11.69;100.00
4449;BME280;2237;51.870;6.160;2023-04-29T03:30:17;101445.03;;;11.78;100.00
4449;BME280;2237;51.870;6.160;2023-04-29T03:32:44;101456.44;;;11.74;100.00
4449;BME280;2237;51.870;6.160;2023-04-29T03:35:10;101447.75;;;11.74;100.00
4449;BME280;2237;51.870;6.160;2023-04-29T03:37:40;101447.78;;;11.72;100.00
4449;BME280;2237;51.870;6.160;2023-04-29T03:40:09;101451.06;;;11.82;100.00
4449;BME280;2237;51.870;6.160;2023-04-29T03:42:36;101449.53;;;11.70;100.00
4449;BME280;2237;51.870;6.160;2023-04-29T03:45:02;101456.56;;;11.65;100.00
4449;BME280;2237;51.870;6.160;2023-04-29T03:47:29;101458.25;;;11.68;100.00
4449;BME280;2237;51.870;6.160;2023-04-29T03:49:55;101454.69;;;11.73;100.00
4449;BME280;2237;51.870;6.160;2023-04-29T03:52:21;101453.91;;;11.68;100.00
4449;BME280;2237;51.870;6.160;2023-04-29T03:54:48;101460.91;;;11.66;100.00
4449;BME280;2237;51.870;6.160;2023-04-29T03:57:14;101467.91;;;11.61;100.00
4449;BME280;2237;51.870;6.160;2023-04-29T03:59:41;101472.31;;;11.59;100.00
4449;BME280;2237;51.870;6.160;2023-04-29T04:02:07;101467.19;;;11.53;100.00
4449;BME280;2237;51.870;6.160;2023-04-29T04:04:36;101474.03;;;11.60;100.00
4449;BME280;2237;51.870;6.160;2023-04-29T04:07:03;101480.13;;;11.59;100.00
4449;BME280;2237;51.870;6.160;2023-04-29T04:09:30;101481.00;;;11.58;100.00
4449;BME280;2237;51.870;6.160;2023-04-29T04:11:56;101488.91;;;11.54;100.00
4449;BME280;2237;51.870;6.160;2023-04-29T04:14:22;101498.41;;;11.59;100.00
4449;BME280;2237;51.870;6.160;2023-04-29T04:16:48;101488.88;;;11.57;100.00
4449;BME280;2237;51.870;6.160;2023-04-29T04:19:16;101493.41;;;11.46;100.00
4449;BME280;2237;51.870;6.160;2023-04-29T04:21:42;101503.19;;;11.30;100.00
4449;BME280;2237;51.870;6.160;2023-04-29T04:24:08;101503.22;;;11.28;100.00
4449;BME280;2237;51.870;6.160;2023-04-29T04:26:35;101504.78;;;11.40;100.00
4449;BME280;2237;51.870;6.160;2023-04-29T04:29:01;101508.00;;;11.56;100.00
4449;BME280;2237;51.870;6.160;2023-04-29T04:31:28;101507.97;;;11.60;100.00
4449;BME280;2237;51.870;6.160;2023-04-29T04:33:55;101513.19;;;11.59;100.00
4449;BME280;2237;51.870;6.160;2023-04-29T04:36:21;101521.13;;;11.51;100.00
4449;BME280;2237;51.870;6.160;2023-04-29T04:38:48;101517.53;;;11.58;100.00
4449;BME280;2237;51.870;6.160;2023-04-29T04:41:14;101527.25;;;11.49;100.00
4449;BME280;2237;51.870;6.160;2023-04-29T04:43:40;101529.81;;;11.52;100.00
4449;BME280;2237;51.870;6.160;2023-04-29T04:46:15;101527.22;;;11.52;100.00
4449;BME280;2237;51.870;6.160;2023-04-29T04:48:42;101530.75;;;11.49;100.00
4449;BME280;2237;51.870;6.160;2023-04-29T04:51:09;101535.97;;;11.48;100.00
4449;BME280;2237;51.870;6.160;2023-04-29T04:53:36;101536.91;;;11.42;100.00
4449;BME280;2237;51.870;6.160;2023-04-29T04:56:03;101540.34;;;11.44;100.00
4449;BME280;2237;51.870;6.160;2023-04-29T04:58:30;101544.53;;;11.56;100.00
4449;BME280;2237;51.870;6.160;2023-04-29T05:00:58;101549.69;;;11.59;100.00
4449;BME280;2237;51.870;6.160;2023-04-29T05:03:25;101546.19;;;11.63;100.00
4449;BME280;2237;51.870;6.160;2023-04-29T05:05:59;101545.31;;;11.62;100.00
4449;BME280;2237;51.870;6.160;2023-04-29T05:08:25;101551.31;;;11.69;100.00
4449;BME280;2237;51.870;6.160;2023-04-29T05:10:52;101557.38;;;11.71;100.00
4449;BME280;2237;51.870;6.160;2023-04-29T05:13:19;101555.56;;;11.76;100.00
4449;BME280;2237;51.870;6.160;2023-04-29T05:15:46;101564.25;;;11.78;100.00
4449;BME280;2237;51.870;6.160;2023-04-29T05:18:12;101560.78;;;11.77;100.00
4449;BME280;2237;51.870;6.160;2023-04-29T05:20:39;101562.44;;;11.81;100.00
4449;BME280;2237;51.870;6.160;2023-04-29T05:23:05;101572.91;;;11.78;100.00
4449;BME280;2237;51.870;6.160;2023-04-29T05:25:31;101573.03;;;11.72;100.00
4449;BME280;2237;51.870;6.160;2023-04-29T05:27:58;101574.09;;;11.56;100.00
4449;BME280;2237;51.870;6.160;2023-04-29T05:30:24;101580.19;;;11.55;100.00
4449;BME280;2237;51.870;6.160;2023-04-29T05:32:50;101576.56;;;11.65;100.00
4449;BME280;2237;51.870;6.160;2023-04-29T05:35:20;101571.34;;;11.65;100.00
4449;BME280;2237;51.870;6.160;2023-04-29T05:37:47;101584.16;;;11.82;100.00
4449;BME280;2237;51.870;6.160;2023-04-29T05:40:13;101593.78;;;11.80;100.00
4449;BME280;2237;51.870;6.160;2023-04-29T05:42:39;101583.25;;;11.86;100.00
4449;BME280;2237;51.870;6.160;2023-04-29T05:45:07;101584.94;;;11.87;100.00
4449;BME280;2237;51.870;6.160;2023-04-29T05:47:33;101593.47;;;12.01;100.00
4449;BME280;2237;51.870;6.160;2023-04-29T05:49:59;101601.97;;;12.11;100.00
4449;BME280;2237;51.870;6.160;2023-04-29T05:52:26;101606.31;;;12.12;100.00
4449;BME280;2237;51.870;6.160;2023-04-29T05:54:52;101600.97;;;12.21;100.00
4449;BME280;2237;51.870;6.160;2023-04-29T05:57:18;101603.38;;;12.33;100.00
4449;BME280;2237;51.870;6.160;2023-04-29T05:59:45;101605.13;;;12.31;100.00
4449;BME280;2237;51.870;6.160;2023-04-29T06:02:11;101608.59;;;12.33;100.00
4449;BME280;2237;51.870;6.160;2023-04-29T06:04:38;101611.97;;;12.38;100.00
4449;BME280;2237;51.870;6.160;2023-04-29T06:07:06;101610.16;;;12.43;100.00
4449;BME280;2237;51.870;6.160;2023-04-29T06:09:35;101616.91;;;12.55;100.00
4449;BME280;2237;51.870;6.160;2023-04-29T06:12:01;101622.00;;;12.62;100.00
4449;BME280;2237;51.870;6.160;2023-04-29T06:14:28;101612.94;;;12.81;100.00
4449;BME280;2237;51.870;6.160;2023-04-29T06:16:55;101613.59;;;12.92;100.00
4449;BME280;2237;51.870;6.160;2023-04-29T06:19:21;101616.19;;;12.94;100.00
4449;BME280;2237;51.870;6.160;2023-04-29T06:21:48;101622.19;;;12.99;100.00
4449;BME280;2237;51.870;6.160;2023-04-29T06:24:14;101627.25;;;13.07;100.00
4449;BME280;2237;51.870;6.160;2023-04-29T06:26:41;101634.22;;;13.06;100.00
4449;BME280;2237;51.870;6.160;2023-04-29T06:29:07;101637.28;;;12.83;100.00
4449;BME280;2237;51.870;6.160;2023-04-29T06:31:34;101647.69;;;12.86;100.00
4449;BME280;2237;51.870;6.160;2023-04-29T06:34:00;101644.03;;;12.96;100.00
4449;BME280;2237;51.870;6.160;2023-04-29T06:36:26;101645.78;;;12.94;100.00
4449;BME280;2237;51.870;6.160;2023-04-29T06:38:53;101653.56;;;12.97;100.00
4449;BME280;2237;51.870;6.160;2023-04-29T06:41:19;101654.53;;;12.93;100.00
4449;BME280;2237;51.870;6.160;2023-04-29T06:43:46;101656.22;;;12.96;100.00
4449;BME280;2237;51.870;6.160;2023-04-29T06:46:14;101654.25;;;13.07;100.00
4449;BME280;2237;51.870;6.160;2023-04-29T06:48:40;101661.16;;;13.13;100.00
4449;BME280;2237;51.870;6.160;2023-04-29T06:51:07;101663.09;;;13.01;100.00
4449;BME280;2237;51.870;6.160;2023-04-29T06:53:33;101671.88;;;12.97;100.00
4449;BME280;2237;51.870;6.160;2023-04-29T06:55:59;101669.41;;;12.90;100.00
4449;BME280;2237;51.870;6.160;2023-04-29T06:58:26;101678.03;;;12.95;100.00
4449;BME280;2237;51.870;6.160;2023-04-29T07:00:52;101681.31;;;13.08;100.00
4449;BME280;2237;51.870;6.160;2023-04-29T07:03:18;101679.44;;;13.14;100.00
4449;BME280;2237;51.870;6.160;2023-04-29T07:05:45;101699.50;;;13.12;100.00
4449;BME280;2237;51.870;6.160;2023-04-29T07:08:12;101696.00;;;13.15;100.00
4449;BME280;2237;51.870;6.160;2023-04-29T07:10:39;101694.94;;;13.25;100.00
4449;BME280;2237;51.870;6.160;2023-04-29T07:13:06;101702.88;;;13.19;100.00
4449;BME280;2237;51.870;6.160;2023-04-29T07:15:34;101703.00;;;13.13;100.00
4449;BME280;2237;51.870;6.160;2023-04-29T07:18:03;101704.63;;;13.20;100.00
4449;BME280;2237;51.870;6.160;2023-04-29T07:20:30;101703.69;;;13.22;100.00
4449;BME280;2237;51.870;6.160;2023-04-29T07:22:56;101707.72;;;13.40;100.00
4449;BME280;2237;51.870;6.160;2023-04-29T07:25:22;101702.94;;;13.58;100.00
4449;BME280;2237;51.870;6.160;2023-04-29T07:27:49;101714.16;;;13.67;100.00
4449;BME280;2237;51.870;6.160;2023-04-29T07:30:15;101711.91;;;13.88;100.00
4449;BME280;2237;51.870;6.160;2023-04-29T07:32:41;101720.34;;;14.02;100.00
4449;BME280;2237;51.870;6.160;2023-04-29T07:35:08;101719.66;;;13.94;100.00
4449;BME280;2237;51.870;6.160;2023-04-29T07:37:34;101712.19;;;14.14;100.00
4449;BME280;2237;51.870;6.160;2023-04-29T07:40:01;101724.91;;;14.33;100.00
4449;BME280;2237;51.870;6.160;2023-04-29T07:42:27;101726.97;;;14.17;100.00
4449;BME280;2237;51.870;6.160;2023-04-29T07:44:54;101725.03;;;14.27;100.00
4449;BME280;2237;51.870;6.160;2023-04-29T07:47:21;101733.44;;;14.41;100.00
4449;BME280;2237;51.870;6.160;2023-04-29T07:49:47;101736.81;;;14.46;100.00
4449;BME280;2237;51.870;6.160;2023-04-29T07:52:13;101742.63;;;14.58;100.00
4449;BME280;2237;51.870;6.160;2023-04-29T07:54:40;101745.41;;;14.52;100.00
4449;BME280;2237;51.870;6.160;2023-04-29T07:57:06;101744.47;;;14.55;100.00
4449;BME280;2237;51.870;6.160;2023-04-29T07:59:32;101755.63;;;14.63;100.00
4449;BME280;2237;51.870;6.160;2023-04-29T08:01:59;101751.44;;;14.56;100.00
4449;BME280;2237;51.870;6.160;2023-04-29T08:04:25;101753.19;;;14.55;100.00
4449;BME280;2237;51.870;6.160;2023-04-29T08:06:52;101761.44;;;14.76;100.00
4449;BME280;2237;51.870;6.160;2023-04-29T08:09:18;101764.81;;;14.81;100.00
4449;BME280;2237;51.870;6.160;2023-04-29T08:11:44;101763.72;;;14.89;100.00
4449;BME280;2237;51.870;6.160;2023-04-29T08:14:11;101765.13;;;15.02;100.00
4449;BME280;2237;51.870;6.160;2023-04-29T08:16:38;101769.06;;;15.18;100.00
4449;BME280;2237;51.870;6.160;2023-04-29T08:19:04;101773.75;;;15.07;100.00
4449;BME280;2237;51.870;6.160;2023-04-29T08:21:30;101773.91;;;15.35;100.00
4449;BME280;2237;51.870;6.160;2023-04-29T08:23:57;101775.22;;;15.51;100.00
4449;BME280;2237;51.870;6.160;2023-04-29T08:26:24;101777.72;;;15.56;100.00
4449;BME280;2237;51.870;6.160;2023-04-29T08:28:50;101783.41;;;15.71;100.00
4449;BME280;2237;51.870;6.160;2023-04-29T08:31:18;101780.56;;;15.79;100.00
4449;BME280;2237;51.870;6.160;2023-04-29T08:33:45;101779.16;;;15.97;100.00
4449;BME280;2237;51.870;6.160;2023-04-29T08:36:12;101786.06;;;16.01;100.00
4449;BME280;2237;51.870;6.160;2023-04-29T08:38:38;101784.81;;;15.83;100.00
4449;BME280;2237;51.870;6.160;2023-04-29T08:41:08;101789.44;;;15.75;100.00
4449;BME280;2237;51.870;6.160;2023-04-29T08:43:35;101784.59;;;15.91;100.00
4449;BME280;2237;51.870;6.160;2023-04-29T08:46:06;101788.53;;;16.34;100.00
4449;BME280;2237;51.870;6.160;2023-04-29T08:48:32;101789.66;;;16.26;100.00
4449;BME280;2237;51.870;6.160;2023-04-29T08:51:00;101784.75;;;16.15;100.00
4449;BME280;2237;51.870;6.160;2023-04-29T08:53:27;101792.59;;;16.45;100.00
4449;BME280;2237;51.870;6.160;2023-04-29T08:55:57;101792.97;;;16.62;100.00
4449;BME280;2237;51.870;6.160;2023-04-29T08:58:27;101796.53;;;16.87;100.00
4449;BME280;2237;51.870;6.160;2023-04-29T09:00:54;101792.88;;;16.91;100.00
4449;BME280;2237;51.870;6.160;2023-04-29T09:03:43;101804.50;;;17.10;100.00
4449;BME280;2237;51.870;6.160;2023-04-29T09:06:12;101801.47;;;16.96;96.56
4449;BME280;2237;51.870;6.160;2023-04-29T09:08:39;101802.75;;;17.11;96.67
4449;BME280;2237;51.870;6.160;2023-04-29T09:11:09;101811.91;;;16.99;94.35
4449;BME280;2237;51.870;6.160;2023-04-29T09:13:37;101806.81;;;16.94;95.92
4449;BME280;2237;51.870;6.160;2023-04-29T09:16:03;101812.16;;;16.91;93.55
4449;BME280;2237;51.870;6.160;2023-04-29T09:21:23;101813.84;;;16.94;94.05
4449;BME280;2237;51.870;6.160;2023-04-29T09:24:00;101826.72;;;17.02;94.14
4449;BME280;2237;51.870;6.160;2023-04-29T09:26:34;101822.50;;;17.48;94.79
4449;BME280;2237;51.870;6.160;2023-04-29T09:29:10;101823.97;;;17.82;93.02
4449;BME280;2237;51.870;6.160;2023-04-29T09:31:39;101832.66;;;17.84;88.50
4449;BME280;2237;51.870;6.160;2023-04-29T09:34:06;101837.00;;;17.85;86.59
4449;BME280;2237;51.870;6.160;2023-04-29T09:36:49;101832.47;;;17.90;85.44
4449;BME280;2237;51.870;6.160;2023-04-29T09:39:18;101835.84;;;17.93;85.12
4449;BME280;2237;51.870;6.160;2023-04-29T09:44:21;101843.88;;;18.37;81.81
4449;BME280;2237;51.870;6.160;2023-04-29T09:47:02;101842.75;;;18.66;81.21
4449;BME280;2237;51.870;6.160;2023-04-29T09:52:06;101844.56;;;18.63;79.88
4449;BME280;2237;51.870;6.160;2023-04-29T09:54:33;101844.22;;;18.73;78.44
4449;BME280;2237;51.870;6.160;2023-04-29T09:57:02;101851.25;;;18.27;80.23
4449;BME280;2237;51.870;6.160;2023-04-29T09:59:33;101865.03;;;17.63;79.05
4449;BME280;2237;51.870;6.160;2023-04-29T10:02:13;101856.13;;;17.40;84.91
4449;BME280;2237;51.870;6.160;2023-04-29T10:04:45;101848.84;;;17.48;86.23
4449;BME280;2237;51.870;6.160;2023-04-29T10:07:13;101849.00;;;17.70;86.98
4449;BME280;2237;51.870;6.160;2023-04-29T10:09:41;101853.06;;;17.79;86.20
4449;BME280;2237;51.870;6.160;2023-04-29T10:12:09;101851.97;;;17.60;85.25
4449;BME280;2237;51.870;6.160;2023-04-29T10:14:43;101850.19;;;17.35;86.48
4449;BME280;2237;51.870;6.160;2023-04-29T10:17:15;101854.69;;;17.32;87.85
4449;BME280;2237;51.870;6.160;2023-04-29T10:19:52;101855.13;;;17.18;85.42
4449;BME280;2237;51.870;6.160;2023-04-29T10:22:45;101852.16;;;17.29;84.77
4449;BME280;2237;51.870;6.160;2023-04-29T10:25:17;101862.41;;;17.63;84.28
4449;BME280;2237;51.870;6.160;2023-04-29T10:27:44;101850.25;;;18.08;85.26
4449;BME280;2237;51.870;6.160;2023-04-29T10:30:12;101849.19;;;18.12;81.00
4449;BME280;2237;51.870;6.160;2023-04-29T10:32:40;101850.56;;;17.99;76.56
4449;BME280;2237;51.870;6.160;2023-04-29T10:35:18;101862.31;;;17.90;76.34
4449;BME280;2237;51.870;6.160;2023-04-29T10:37:46;101872.47;;;17.76;76.37
4449;BME280;2237;51.870;6.160;2023-04-29T10:40:17;101861.78;;;17.81;75.73
4449;BME280;2237;51.870;6.160;2023-04-29T10:42:49;101857.38;;;17.81;73.28
4449;BME280;2237;51.870;6.160;2023-04-29T10:45:26;101851.91;;;18.11;76.47
4449;BME280;2237;51.870;6.160;2023-04-29T10:53:13;101865.88;;;18.13;76.54
4449;BME280;2237;51.870;6.160;2023-04-29T10:55:40;101862.44;;;18.11;73.61
4449;BME280;2237;51.870;6.160;2023-04-29T11:01:02;101862.44;;;18.79;73.44
4449;BME280;2237;51.870;6.160;2023-04-29T11:04:00;101857.13;;;19.22;68.24
4449;BME280;2237;51.870;6.160;2023-04-29T11:09:07;101853.41;;;19.88;60.57
4449;BME280;2237;51.870;6.160;2023-04-29T11:11:42;101861.78;;;19.98;60.73
4449;BME280;2237;51.870;6.160;2023-04-29T11:14:12;101861.88;;;20.15;58.12
4449;BME280;2237;51.870;6.160;2023-04-29T11:16:50;101872.09;;;20.43;55.78
4449;BME280;2237;51.870;6.160;2023-04-29T11:19:17;101876.31;;;20.65;53.57
4449;BME280;2237;51.870;6.160;2023-04-29T11:21:45;101872.78;;;20.83;52.44
4449;BME280;2237;51.870;6.160;2023-04-29T11:24:12;101866.44;;;21.05;53.23
4449;BME280;2237;51.870;6.160;2023-04-29T11:26:41;101869.38;;;21.17;53.71
4449;BME280;2237;51.870;6.160;2023-04-29T11:29:08;101870.16;;;21.36;52.69
4449;BME280;2237;51.870;6.160;2023-04-29T11:31:35;101872.66;;;21.57;52.08
4449;BME280;2237;51.870;6.160;2023-04-29T11:34:04;101864.63;;;21.75;51.53
4449;BME280;2237;51.870;6.160;2023-04-29T11:36:32;101867.09;;;21.95;50.17
4449;BME280;2237;51.870;6.160;2023-04-29T11:39:00;101868.41;;;21.87;49.58
4449;BME280;2237;51.870;6.160;2023-04-29T11:41:27;101872.31;;;21.97;48.83
4449;BME280;2237;51.870;6.160;2023-04-29T11:43:58;101876.44;;;21.85;45.49
4449;BME280;2237;51.870;6.160;2023-04-29T11:46:24;101881.13;;;21.80;44.91
4449;BME280;2237;51.870;6.160;2023-04-29T11:48:56;101876.25;;;21.90;46.84
4449;BME280;2237;51.870;6.160;2023-04-29T11:51:23;101877.66;;;22.13;45.88
4449;BME280;2237;51.870;6.160;2023-04-29T11:53:51;101879.34;;;22.46;45.15
4449;BME280;2237;51.870;6.160;2023-04-29T11:56:20;101877.34;;;22.67;45.34
4449;BME280;2237;51.870;6.160;2023-04-29T11:58:49;101877.09;;;22.72;45.50
4449;BME280;2237;51.870;6.160;2023-04-29T12:01:16;101878.03;;;22.71;45.12
4449;BME280;2237;51.870;6.160;2023-04-29T12:03:42;101870.41;;;22.65;45.73
4449;BME280;2237;51.870;6.160;2023-04-29T12:06:09;101875.84;;;22.46;45.11
4449;BME280;2237;51.870;6.160;2023-04-29T12:08:35;101875.41;;;22.38;45.11
4449;BME280;2237;51.870;6.160;2023-04-29T12:11:02;101877.88;;;22.25;41.73
4449;BME280;2237;51.870;6.160;2023-04-29T12:13:29;101878.16;;;22.36;43.04
4449;BME280;2237;51.870;6.160;2023-04-29T12:15:56;101875.38;;;22.71;43.48
4449;BME280;2237;51.870;6.160;2023-04-29T12:18:24;101870.06;;;22.86;42.91
4449;BME280;2237;51.870;6.160;2023-04-29T12:20:52;101872.25;;;22.94;42.43
4449;BME280;2237;51.870;6.160;2023-04-29T12:23:23;101877.22;;;22.84;43.26
4449;BME280;2237;51.870;6.160;2023-04-29T12:28:20;101878.59;;;22.60;42.60
4449;BME280;2237;51.870;6.160;2023-04-29T12:30:48;101872.19;;;22.64;43.36
4449;BME280;2237;51.870;6.160;2023-04-29T12:33:18;101874.44;;;22.72;43.95
4449;BME280;2237;51.870;6.160;2023-04-29T12:35:45;101876.41;;;22.68;44.61
4449;BME280;2237;51.870;6.160;2023-04-29T12:38:15;101873.72;;;22.99;43.28
4449;BME280;2237;51.870;6.160;2023-04-29T12:40:43;101869.34;;;23.28;42.50
4449;BME280;2237;51.870;6.160;2023-04-29T12:43:09;101878.81;;;23.63;40.08
4449;BME280;2237;51.870;6.160;2023-04-29T12:45:37;101883.47;;;23.74;38.44
4449;BME280;2237;51.870;6.160;2023-04-29T12:48:03;101881.22;;;23.96;37.38
4449;BME280;2237;51.870;6.160;2023-04-29T12:50:40;101877.41;;;24.00;38.20
4449;BME280;2237;51.870;6.160;2023-04-29T12:53:07;101878.44;;;23.70;38.90
4449;BME280;2237;51.870;6.160;2023-04-29T12:55:36;101877.50;;;23.25;38.80
4449;BME280;2237;51.870;6.160;2023-04-29T12:58:03;101878.25;;;22.97;40.20
4449;BME280;2237;51.870;6.160;2023-04-29T13:00:32;101883.09;;;22.27;40.23
4449;BME280;2237;51.870;6.160;2023-04-29T13:03:00;101877.88;;;21.75;41.91
4449;BME280;2237;51.870;6.160;2023-04-29T13:05:27;101886.00;;;21.55;43.21
4449;BME280;2237;51.870;6.160;2023-04-29T13:07:54;101878.03;;;21.55;44.17
4449;BME280;2237;51.870;6.160;2023-04-29T13:10:20;101884.97;;;21.58;43.81
4449;BME280;2237;51.870;6.160;2023-04-29T13:12:47;101890.53;;;21.87;44.65
4449;BME280;2237;51.870;6.160;2023-04-29T13:15:13;101882.81;;;22.16;43.63
4449;BME280;2237;51.870;6.160;2023-04-29T13:17:40;101888.44;;;22.42;41.08
4449;BME280;2237;51.870;6.160;2023-04-29T13:20:07;101882.47;;;22.70;40.40
4449;BME280;2237;51.870;6.160;2023-04-29T13:22:36;101882.22;;;23.36;39.10
4449;BME280;2237;51.870;6.160;2023-04-29T13:25:03;101889.84;;;23.86;37.78
4449;BME280;2237;51.870;6.160;2023-04-29T13:27:29;101882.13;;;24.11;37.65
4449;BME280;2237;51.870;6.160;2023-04-29T13:29:56;101883.03;;;24.38;36.83
4449;BME280;2237;51.870;6.160;2023-04-29T13:32:23;101882.31;;;24.77;37.33
4449;BME280;2237;51.870;6.160;2023-04-29T13:34:50;101886.34;;;24.56;35.48